sensor_id;sensor_type;location;lat;lon;timestamp;temperature;humidity
4695;DHT22;2361;49.540;8.390;2022-12-18T00:01:37;-3.90;99.90
4695;DHT22;2361;49.540;8.390;2022-12-18T00:04:05;-3.90;99.90
4695;DHT22;2361;49.540;8.390;2022-12-18T00:06:35;-3.80;99.90
4695;DHT22;2361;49.540;8.390;2022-12-18T00:09:03;-3.80;99.90
4695;DHT22;2361;49.540;8.390;2022-12-18T00:11:30;-3.80;99.90
4695;DHT22;2361;49.540;8.390;2022-12-18T00:13:59;-3.90;99.90
4695;DHT22;2361;49.540;8.390;2022-12-18T00:16:27;-3.90;99.90
4695;DHT22;2361;49.540;8.390;2022-12-18T00:18:56;-4.00;99.90
4695;DHT22;2361;49.540;8.390;2022-12-18T00:21:23;-4.00;99.90
4695;DHT22;2361;49.540;8.390;2022-12-18T00:23:50;-4.00;99.90
4695;DHT22;2361;49.540;8.390;2022-12-18T00:26:20;-4.00;99.90
4695;DHT22;2361;49.540;8.390;2022-12-18T00:28:52;-4.00;99.90
4695;DHT22;2361;49.540;8.390;2022-12-18T00:31:22;-4.00;99.90
4695;DHT22;2361;49.540;8.390;2022-12-18T00:33:50;-4.00;99.90
4695;DHT22;2361;49.540;8.390;2022-12-18T00:36:25;-4.10;99.90
4695;DHT22;2361;49.540;8.390;2022-12-18T00:38:54;-4.10;99.90
4695;DHT22;2361;49.540;8.390;2022-12-18T00:41:23;-4.10;99.90
4695;DHT22;2361;49.540;8.390;2022-12-18T00:44:12;-4.10;99.90
4695;DHT22;2361;49.540;8.390;2022-12-18T00:46:41;-4.10;99.90
4695;DHT22;2361;49.540;8.390;2022-12-18T00:49:08;-4.10;99.90
4695;DHT22;2361;49.540;8.390;2022-12-18T00:51:36;-4.10;99.90
4695;DHT22;2361;49.540;8.390;2022-12-18T00:54:03;-4.10;99.90
4695;DHT22;2361;49.540;8.390;2022-12-18T00:56:30;-4.10;99.90
4695;DHT22;2361;49.540;8.390;2022-12-18T00:58:57;-4.20;99.90
4695;DHT22;2361;49.540;8.390;2022-12-18T01:01:24;-4.20;99.90
4695;DHT22;2361;49.540;8.390;2022-12-18T01:03:51;-4.20;99.90
4695;DHT22;2361;49.540;8.390;2022-12-18T01:06:18;-4.30;99.90
4695;DHT22;2361;49.540;8.390;2022-12-18T01:08:45;-4.30;99.90
4695;DHT22;2361;49.540;8.390;2022-12-18T01:11:17;-4.30;99.90
4695;DHT22;2361;49.540;8.390;2022-12-18T01:13:45;-4.30;99.90
4695;DHT22;2361;49.540;8.390;2022-12-18T01:16:14;-4.30;99.90
4695;DHT22;2361;49.540;8.390;2022-12-18T01:18:42;-4.30;99.90
4695;DHT22;2361;49.540;8.390;2022-12-18T01:21:13;-4.30;99.90
4695;DHT22;2361;49.540;8.390;2022-12-18T01:23:44;-4.30;99.90
4695;DHT22;2361;49.540;8.390;2022-12-18T01:26:15;-4.30;99.90
4695;DHT22;2361;49.540;8.390;2022-12-18T01:28:42;-4.20;99.90
4695;DHT22;2361;49.540;8.390;2022-12-18T01:31:20;-4.30;99.90
4695;DHT22;2361;49.540;8.390;2022-12-18T01:33:49;-4.30;99.90
4695;DHT22;2361;49.540;8.390;2022-12-18T01:36:19;-4.30;99.90
4695;DHT22;2361;49.540;8.390;2022-12-18T01:38:51;-4.30;99.90
4695;DHT22;2361;49.540;8.390;2022-12-18T01:41:23;-4.30;99.90
4695;DHT22;2361;49.540;8.390;2022-12-18T01:43:57;-4.30;99.90
4695;DHT22;2361;49.540;8.390;2022-12-18T01:46:25;-4.30;99.90
4695;DHT22;2361;49.540;8.390;2022-12-18T01:49:02;-4.40;99.90
4695;DHT22;2361;49.540;8.390;2022-12-18T01:51:30;-4.40;99.90
4695;DHT22;2361;49.540;8.390;2022-12-18T01:53:58;-4.30;99.90
4695;DHT22;2361;49.540;8.390;2022-12-18T01:56:25;-4.30;99.90
4695;DHT22;2361;49.540;8.390;2022-12-18T01:59:00;-4.30;99.90
4695;DHT22;2361;49.540;8.390;2022-12-18T02:01:31;-4.40;99.90
4695;DHT22;2361;49.540;8.390;2022-12-18T02:04:21;-4.40;99.90
4695;DHT22;2361;49.540;8.390;2022-12-18T02:09:50;-4.40;99.90
4695;DHT22;2361;49.540;8.390;2022-12-18T02:12:24;-4.40;99.90
4695;DHT22;2361;49.540;8.390;2022-12-18T02:18:05;-4.50;99.90
4695;DHT22;2361;49.540;8.390;2022-12-18T02:20:53;-4.50;99.90
4695;DHT22;2361;49.540;8.390;2022-12-18T02:23:35;-4.40;99.90
4695;DHT22;2361;49.540;8.390;2022-12-18T02:29:18;-4.50;99.90
4695;DHT22;2361;49.540;8.390;2022-12-18T02:31:58;-4.50;99.90
4695;DHT22;2361;49.540;8.390;2022-12-18T02:34:30;-4.60;99.90
4695;DHT22;2361;49.540;8.390;2022-12-18T02:37:01;-4.60;99.90
4695;DHT22;2361;49.540;8.390;2022-12-18T02:39:31;-4.60;99.90
4695;DHT22;2361;49.540;8.390;2022-12-18T02:41:59;-4.50;99.90
4695;DHT22;2361;49.540;8.390;2022-12-18T02:44:29;-4.50;99.90
4695;DHT22;2361;49.540;8.390;2022-12-18T02:46:55;-4.50;99.90
4695;DHT22;2361;49.540;8.390;2022-12-18T02:49:36;-4.40;99.90
4695;DHT22;2361;49.540;8.390;2022-12-18T02:52:32;-4.40;99.90
4695;DHT22;2361;49.540;8.390;2022-12-18T02:58:58;-4.40;99.90
4695;DHT22;2361;49.540;8.390;2022-12-18T03:04:38;-4.50;99.90
4695;DHT22;2361;49.540;8.390;2022-12-18T03:07:19;-4.40;99.90
4695;DHT22;2361;49.540;8.390;2022-12-18T03:09:50;-4.40;99.90
4695;DHT22;2361;49.540;8.390;2022-12-18T03:12:32;-4.40;99.90
4695;DHT22;2361;49.540;8.390;2022-12-18T03:15:12;-4.50;99.90
4695;DHT22;2361;49.540;8.390;2022-12-18T03:17:48;-4.50;99.90
4695;DHT22;2361;49.540;8.390;2022-12-18T03:20:23;-4.50;99.90
4695;DHT22;2361;49.540;8.390;2022-12-18T03:22:59;-4.60;99.90
4695;DHT22;2361;49.540;8.390;2022-12-18T03:25:31;-4.50;99.90
4695;DHT22;2361;49.540;8.390;2022-12-18T03:28:00;-4.60;99.90
4695;DHT22;2361;49.540;8.390;2022-12-18T03:30:30;-4.60;99.90
4695;DHT22;2361;49.540;8.390;2022-12-18T03:33:05;-4.60;99.90
4695;DHT22;2361;49.540;8.390;2022-12-18T03:35:54;-4.60;99.90
4695;DHT22;2361;49.540;8.390;2022-12-18T03:38:22;-4.60;99.90
4695;DHT22;2361;49.540;8.390;2022-12-18T03:44:03;-4.60;99.90
4695;DHT22;2361;49.540;8.390;2022-12-18T03:47:09;-4.50;99.90
4695;DHT22;2361;49.540;8.390;2022-12-18T03:50:14;-4.60;99.90
4695;DHT22;2361;49.540;8.390;2022-12-18T03:52:55;-4.60;99.90
4695;DHT22;2361;49.540;8.390;2022-12-18T03:55:26;-4.60;99.90
4695;DHT22;2361;49.540;8.390;2022-12-18T03:57:55;-4.60;99.90
4695;DHT22;2361;49.540;8.390;2022-12-18T04:00:23;-4.60;99.90
4695;DHT22;2361;49.540;8.390;2022-12-18T04:02:55;-4.60;99.90
4695;DHT22;2361;49.540;8.390;2022-12-18T04:05:24;-4.60;99.90
4695;DHT22;2361;49.540;8.390;2022-12-18T04:07:53;-4.60;99.90
4695;DHT22;2361;49.540;8.390;2022-12-18T04:10:21;-4.60;99.90
4695;DHT22;2361;49.540;8.390;2022-12-18T04:12:48;-4.60;99.90
4695;DHT22;2361;49.540;8.390;2022-12-18T04:15:15;-4.60;99.90
4695;DHT22;2361;49.540;8.390;2022-12-18T04:17:48;-4.70;99.90
4695;DHT22;2361;49.540;8.390;2022-12-18T04:20:16;-4.70;99.90
4695;DHT22;2361;49.540;8.390;2022-12-18T04:22:43;-4.70;99.90
4695;DHT22;2361;49.540;8.390;2022-12-18T04:25:12;-4.70;99.90
4695;DHT22;2361;49.540;8.390;2022-12-18T04:27:39;-4.70;99.90
4695;DHT22;2361;49.540;8.390;2022-12-18T04:30:07;-4.70;99.90
4695;DHT22;2361;49.540;8.390;2022-12-18T04:32:34;-4.70;99.90
4695;DHT22;2361;49.540;8.390;2022-12-18T04:35:02;-4.70;99.90
4695;DHT22;2361;49.540;8.390;2022-12-18T04:37:30;-4.70;99.90
4695;DHT22;2361;49.540;8.390;2022-12-18T04:39:57;-4.70;99.90
4695;DHT22;2361;49.540;8.390;2022-12-18T04:42:24;-4.70;99.90
4695;DHT22;2361;49.540;8.390;2022-12-18T04:44:51;-4.70;99.90
4695;DHT22;2361;49.540;8.390;2022-12-18T04:47:18;-4.70;99.90
4695;DHT22;2361;49.540;8.390;2022-12-18T04:49:45;-4.70;99.90
4695;DHT22;2361;49.540;8.390;2022-12-18T04:52:12;-4.70;99.90
4695;DHT22;2361;49.540;8.390;2022-12-18T04:54:39;-4.80;99.90
4695;DHT22;2361;49.540;8.390;2022-12-18T04:57:06;-4.80;99.90
4695;DHT22;2361;49.540;8.390;2022-12-18T04:59:33;-4.80;99.90
4695;DHT22;2361;49.540;8.390;2022-12-18T05:01:59;-4.80;99.90
4695;DHT22;2361;49.540;8.390;2022-12-18T05:04:27;-4.80;99.90
4695;DHT22;2361;49.540;8.390;2022-12-18T05:06:53;-4.90;99.90
4695;DHT22;2361;49.540;8.390;2022-12-18T05:09:21;-4.90;99.90
4695;DHT22;2361;49.540;8.390;2022-12-18T05:11:48;-4.90;99.90
4695;DHT22;2361;49.540;8.390;2022-12-18T05:14:15;-4.90;99.90
4695;DHT22;2361;49.540;8.390;2022-12-18T05:16:41;-4.90;99.90
4695;DHT22;2361;49.540;8.390;2022-12-18T05:19:08;-5.00;99.90
4695;DHT22;2361;49.540;8.390;2022-12-18T05:21:35;-5.00;99.90
4695;DHT22;2361;49.540;8.390;2022-12-18T05:24:03;-5.00;99.90
4695;DHT22;2361;49.540;8.390;2022-12-18T05:26:30;-5.00;99.90
4695;DHT22;2361;49.540;8.390;2022-12-18T05:28:57;-5.10;99.90
4695;DHT22;2361;49.540;8.390;2022-12-18T05:31:24;-5.10;99.90
4695;DHT22;2361;49.540;8.390;2022-12-18T05:33:51;-5.20;99.90
4695;DHT22;2361;49.540;8.390;2022-12-18T05:36:18;-5.10;99.90
4695;DHT22;2361;49.540;8.390;2022-12-18T05:38:45;-5.10;99.90
4695;DHT22;2361;49.540;8.390;2022-12-18T05:41:12;-5.10;99.90
4695;DHT22;2361;49.540;8.390;2022-12-18T05:43:40;-5.10;99.90
4695;DHT22;2361;49.540;8.390;2022-12-18T05:46:13;-5.10;99.90
4695;DHT22;2361;49.540;8.390;2022-12-18T05:48:42;-5.10;99.90
4695;DHT22;2361;49.540;8.390;2022-12-18T05:51:11;-5.10;99.90
4695;DHT22;2361;49.540;8.390;2022-12-18T05:53:41;-5.10;99.90
4695;DHT22;2361;49.540;8.390;2022-12-18T05:56:13;-5.10;99.90
4695;DHT22;2361;49.540;8.390;2022-12-18T05:58:41;-5.10;99.90
4695;DHT22;2361;49.540;8.390;2022-12-18T06:01:17;-5.10;99.90
4695;DHT22;2361;49.540;8.390;2022-12-18T06:03:46;-5.10;99.90
4695;DHT22;2361;49.540;8.390;2022-12-18T06:06:19;-5.10;99.90
4695;DHT22;2361;49.540;8.390;2022-12-18T06:08:49;-5.10;99.90
4695;DHT22;2361;49.540;8.390;2022-12-18T06:11:19;-5.10;99.90
4695;DHT22;2361;49.540;8.390;2022-12-18T06:13:52;-5.10;99.90
4695;DHT22;2361;49.540;8.390;2022-12-18T06:16:24;-5.10;99.90
4695;DHT22;2361;49.540;8.390;2022-12-18T06:18:51;-5.10;99.90
4695;DHT22;2361;49.540;8.390;2022-12-18T06:21:18;-5.10;99.90
4695;DHT22;2361;49.540;8.390;2022-12-18T06:23:45;-5.10;99.90
4695;DHT22;2361;49.540;8.390;2022-12-18T06:26:12;-5.10;99.90
4695;DHT22;2361;49.540;8.390;2022-12-18T06:28:40;-5.10;99.90
4695;DHT22;2361;49.540;8.390;2022-12-18T06:31:07;-5.00;99.90
4695;DHT22;2361;49.540;8.390;2022-12-18T06:33:35;-5.00;99.90
4695;DHT22;2361;49.540;8.390;2022-12-18T06:36:09;-5.10;99.90
4695;DHT22;2361;49.540;8.390;2022-12-18T06:38:40;-5.10;99.90
4695;DHT22;2361;49.540;8.390;2022-12-18T06:41:17;-5.20;99.90
4695;DHT22;2361;49.540;8.390;2022-12-18T06:43:45;-5.20;99.90
4695;DHT22;2361;49.540;8.390;2022-12-18T06:46:12;-5.20;99.90
4695;DHT22;2361;49.540;8.390;2022-12-18T06:48:40;-5.20;99.90
4695;DHT22;2361;49.540;8.390;2022-12-18T06:51:07;-5.20;99.90
4695;DHT22;2361;49.540;8.390;2022-12-18T06:53:34;-5.20;99.90
4695;DHT22;2361;49.540;8.390;2022-12-18T06:56:06;-5.20;99.90
4695;DHT22;2361;49.540;8.390;2022-12-18T06:58:36;-5.20;99.90
4695;DHT22;2361;49.540;8.390;2022-12-18T07:01:04;-5.20;99.90
4695;DHT22;2361;49.540;8.390;2022-12-18T07:03:32;-5.20;99.90
4695;DHT22;2361;49.540;8.390;2022-12-18T07:05:59;-5.20;99.90
4695;DHT22;2361;49.540;8.390;2022-12-18T07:08:26;-5.30;99.90
4695;DHT22;2361;49.540;8.390;2022-12-18T07:10:55;-5.20;99.90
4695;DHT22;2361;49.540;8.390;2022-12-18T07:13:22;-5.30;99.90
4695;DHT22;2361;49.540;8.390;2022-12-18T07:18:52;-5.30;99.90
4695;DHT22;2361;49.540;8.390;2022-12-18T07:21:21;-5.20;99.90
4695;DHT22;2361;49.540;8.390;2022-12-18T07:23:50;-5.20;99.90
4695;DHT22;2361;49.540;8.390;2022-12-18T07:26:19;-5.20;99.90
4695;DHT22;2361;49.540;8.390;2022-12-18T07:28:47;-5.20;99.90
4695;DHT22;2361;49.540;8.390;2022-12-18T07:31:18;-5.20;99.90
4695;DHT22;2361;49.540;8.390;2022-12-18T07:33:47;-5.20;99.90
4695;DHT22;2361;49.540;8.390;2022-12-18T07:36:15;-5.20;99.90
4695;DHT22;2361;49.540;8.390;2022-12-18T07:38:42;-5.10;99.90
4695;DHT22;2361;49.540;8.390;2022-12-18T07:41:11;-5.20;99.90
4695;DHT22;2361;49.540;8.390;2022-12-18T07:43:40;-5.20;99.90
4695;DHT22;2361;49.540;8.390;2022-12-18T07:46:09;-5.10;99.90
4695;DHT22;2361;49.540;8.390;2022-12-18T07:48:37;-5.10;99.90
4695;DHT22;2361;49.540;8.390;2022-12-18T07:51:05;-5.20;99.90
4695;DHT22;2361;49.540;8.390;2022-12-18T07:53:33;-5.20;99.90
4695;DHT22;2361;49.540;8.390;2022-12-18T07:56:04;-5.20;99.90
4695;DHT22;2361;49.540;8.390;2022-12-18T07:58:53;-5.10;99.90
4695;DHT22;2361;49.540;8.390;2022-12-18T08:01:20;-5.00;99.90
4695;DHT22;2361;49.540;8.390;2022-12-18T08:03:48;-4.90;99.90
4695;DHT22;2361;49.540;8.390;2022-12-18T08:06:15;-4.90;99.90
4695;DHT22;2361;49.540;8.390;2022-12-18T08:08:42;-4.80;99.90
4695;DHT22;2361;49.540;8.390;2022-12-18T08:11:09;-4.80;99.90
4695;DHT22;2361;49.540;8.390;2022-12-18T08:13:36;-4.80;99.90
4695;DHT22;2361;49.540;8.390;2022-12-18T08:16:06;-4.80;99.90
4695;DHT22;2361;49.540;8.390;2022-12-18T08:18:34;-4.80;99.90
4695;DHT22;2361;49.540;8.390;2022-12-18T08:23:51;-4.70;99.90
4695;DHT22;2361;49.540;8.390;2022-12-18T08:26:20;-4.70;99.90
4695;DHT22;2361;49.540;8.390;2022-12-18T08:28:47;-4.70;99.90
4695;DHT22;2361;49.540;8.390;2022-12-18T08:31:15;-4.60;99.90
4695;DHT22;2361;49.540;8.390;2022-12-18T08:33:42;-4.60;99.90
4695;DHT22;2361;49.540;8.390;2022-12-18T08:36:10;-4.60;99.90
4695;DHT22;2361;49.540;8.390;2022-12-18T08:38:37;-4.60;99.90
4695;DHT22;2361;49.540;8.390;2022-12-18T08:41:06;-4.60;99.90
4695;DHT22;2361;49.540;8.390;2022-12-18T08:43:40;-4.60;99.90
4695;DHT22;2361;49.540;8.390;2022-12-18T08:46:27;-4.50;99.90
4695;DHT22;2361;49.540;8.390;2022-12-18T08:48:59;-4.40;99.90
4695;DHT22;2361;49.540;8.390;2022-12-18T08:51:25;-4.30;99.90
4695;DHT22;2361;49.540;8.390;2022-12-18T08:53:52;-4.30;99.90
4695;DHT22;2361;49.540;8.390;2022-12-18T08:56:19;-4.10;99.90
4695;DHT22;2361;49.540;8.390;2022-12-18T08:58:46;-4.00;99.90
4695;DHT22;2361;49.540;8.390;2022-12-18T09:01:13;-3.80;99.90
4695;DHT22;2361;49.540;8.390;2022-12-18T09:03:41;-3.40;99.90
4695;DHT22;2361;49.540;8.390;2022-12-18T09:06:08;-3.20;99.90
4695;DHT22;2361;49.540;8.390;2022-12-18T09:08:35;-2.90;99.90
4695;DHT22;2361;49.540;8.390;2022-12-18T09:11:03;-2.80;99.90
4695;DHT22;2361;49.540;8.390;2022-12-18T09:13:30;-2.50;99.90
4695;DHT22;2361;49.540;8.390;2022-12-18T09:15:57;-2.30;99.90
4695;DHT22;2361;49.540;8.390;2022-12-18T09:18:24;-2.20;99.90
4695;DHT22;2361;49.540;8.390;2022-12-18T09:20:51;-2.10;99.90
4695;DHT22;2361;49.540;8.390;2022-12-18T09:23:22;-2.00;99.90
4695;DHT22;2361;49.540;8.390;2022-12-18T09:25:49;-1.90;99.90
4695;DHT22;2361;49.540;8.390;2022-12-18T09:28:17;-1.80;99.90
4695;DHT22;2361;49.540;8.390;2022-12-18T09:30:47;-1.80;99.90
4695;DHT22;2361;49.540;8.390;2022-12-18T09:33:16;-1.70;99.90
4695;DHT22;2361;49.540;8.390;2022-12-18T09:35:44;-1.60;99.90
4695;DHT22;2361;49.540;8.390;2022-12-18T09:38:14;-1.50;99.90
4695;DHT22;2361;49.540;8.390;2022-12-18T09:40:45;-1.50;99.90
4695;DHT22;2361;49.540;8.390;2022-12-18T09:43:42;-1.40;99.90
4695;DHT22;2361;49.540;8.390;2022-12-18T09:46:23;-1.30;99.90
4695;DHT22;2361;49.540;8.390;2022-12-18T09:48:57;-1.30;99.90
4695;DHT22;2361;49.540;8.390;2022-12-18T09:51:27;-1.30;99.90
4695;DHT22;2361;49.540;8.390;2022-12-18T09:54:03;-1.40;99.90
4695;DHT22;2361;49.540;8.390;2022-12-18T09:56:36;-1.40;99.90
4695;DHT22;2361;49.540;8.390;2022-12-18T09:59:20;-1.60;99.90
4695;DHT22;2361;49.540;8.390;2022-12-18T10:01:50;-1.80;99.90
4695;DHT22;2361;49.540;8.390;2022-12-18T10:04:17;-1.90;99.90
4695;DHT22;2361;49.540;8.390;2022-12-18T10:09:38;-2.10;99.90
4695;DHT22;2361;49.540;8.390;2022-12-18T10:12:38;-2.30;99.90
4695;DHT22;2361;49.540;8.390;2022-12-18T10:15:24;-2.50;99.90
4695;DHT22;2361;49.540;8.390;2022-12-18T10:20:52;-2.50;99.90
4695;DHT22;2361;49.540;8.390;2022-12-18T10:26:13;-2.50;99.90
4695;DHT22;2361;49.540;8.390;2022-12-18T10:28:41;-2.30;99.90
4695;DHT22;2361;49.540;8.390;2022-12-18T10:31:16;-2.20;99.90
4695;DHT22;2361;49.540;8.390;2022-12-18T10:33:45;-1.90;99.90
4695;DHT22;2361;49.540;8.390;2022-12-18T10:36:13;-1.80;99.90
4695;DHT22;2361;49.540;8.390;2022-12-18T10:38:40;-1.60;99.90
4695;DHT22;2361;49.540;8.390;2022-12-18T10:44:12;-1.40;99.90
4695;DHT22;2361;49.540;8.390;2022-12-18T10:46:45;-1.30;99.90
4695;DHT22;2361;49.540;8.390;2022-12-18T10:49:27;-1.30;99.90
4695;DHT22;2361;49.540;8.390;2022-12-18T10:52:17;-1.20;99.90
4695;DHT22;2361;49.540;8.390;2022-12-18T10:55:04;-1.10;99.90
4695;DHT22;2361;49.540;8.390;2022-12-18T10:57:37;-1.00;99.90
4695;DHT22;2361;49.540;8.390;2022-12-18T11:00:28;-1.00;99.90
4695;DHT22;2361;49.540;8.390;2022-12-18T11:02:57;-0.90;99.90
4695;DHT22;2361;49.540;8.390;2022-12-18T11:05:29;-0.90;99.90
4695;DHT22;2361;49.540;8.390;2022-12-18T11:07:59;-0.90;99.90
4695;DHT22;2361;49.540;8.390;2022-12-18T11:10:31;-0.90;99.90
4695;DHT22;2361;49.540;8.390;2022-12-18T11:13:22;-0.80;99.90
4695;DHT22;2361;49.540;8.390;2022-12-18T11:15:50;-0.90;99.90
4695;DHT22;2361;49.540;8.390;2022-12-18T11:18:30;-1.10;99.90
4695;DHT22;2361;49.540;8.390;2022-12-18T11:21:05;-1.10;99.90
4695;DHT22;2361;49.540;8.390;2022-12-18T11:23:35;-1.30;99.90
4695;DHT22;2361;49.540;8.390;2022-12-18T11:26:04;-1.30;99.90
4695;DHT22;2361;49.540;8.390;2022-12-18T11:28:44;-1.30;99.90
4695;DHT22;2361;49.540;8.390;2022-12-18T11:31:28;-1.40;99.90
4695;DHT22;2361;49.540;8.390;2022-12-18T11:34:02;-1.40;99.90
4695;DHT22;2361;49.540;8.390;2022-12-18T11:36:53;-1.40;99.90
4695;DHT22;2361;49.540;8.390;2022-12-18T11:42:19;-1.20;99.90
4695;DHT22;2361;49.540;8.390;2022-12-18T11:45:00;-1.20;99.90
4695;DHT22;2361;49.540;8.390;2022-12-18T11:53:03;-1.30;99.90
4695;DHT22;2361;49.540;8.390;2022-12-18T11:55:47;-1.30;99.90
4695;DHT22;2361;49.540;8.390;2022-12-18T12:01:47;-1.40;99.90
4695;DHT22;2361;49.540;8.390;2022-12-18T12:04:40;-1.50;99.90
4695;DHT22;2361;49.540;8.390;2022-12-18T12:07:21;-1.40;99.90
4695;DHT22;2361;49.540;8.390;2022-12-18T12:10:04;-1.40;99.90
4695;DHT22;2361;49.540;8.390;2022-12-18T12:15:40;-1.40;99.90
4695;DHT22;2361;49.540;8.390;2022-12-18T12:18:25;-1.30;99.90
4695;DHT22;2361;49.540;8.390;2022-12-18T12:21:24;-1.40;99.90
4695;DHT22;2361;49.540;8.390;2022-12-18T12:24:19;-1.40;99.90
4695;DHT22;2361;49.540;8.390;2022-12-18T12:39:53;-1.50;99.90
4695;DHT22;2361;49.540;8.390;2022-12-18T12:42:40;-1.50;99.90
4695;DHT22;2361;49.540;8.390;2022-12-18T12:45:33;-1.50;99.90
4695;DHT22;2361;49.540;8.390;2022-12-18T12:48:06;-1.50;99.90
4695;DHT22;2361;49.540;8.390;2022-12-18T12:50:36;-1.60;99.90
4695;DHT22;2361;49.540;8.390;2022-12-18T12:53:08;-1.70;99.90
4695;DHT22;2361;49.540;8.390;2022-12-18T12:55:42;-1.60;99.90
4695;DHT22;2361;49.540;8.390;2022-12-18T13:01:28;-1.60;99.90
4695;DHT22;2361;49.540;8.390;2022-12-18T13:04:24;-1.60;99.90
4695;DHT22;2361;49.540;8.390;2022-12-18T13:10:14;-1.80;99.90
4695;DHT22;2361;49.540;8.390;2022-12-18T13:13:15;-1.80;99.90
4695;DHT22;2361;49.540;8.390;2022-12-18T13:16:06;-1.80;99.90
4695;DHT22;2361;49.540;8.390;2022-12-18T13:18:34;-1.70;99.90
4695;DHT22;2361;49.540;8.390;2022-12-18T13:21:11;-1.70;99.90
4695;DHT22;2361;49.540;8.390;2022-12-18T13:23:45;-1.70;99.90
4695;DHT22;2361;49.540;8.390;2022-12-18T13:28:53;-1.70;99.90
4695;DHT22;2361;49.540;8.390;2022-12-18T13:36:55;-1.70;99.90
4695;DHT22;2361;49.540;8.390;2022-12-18T13:39:33;-1.70;99.90
4695;DHT22;2361;49.540;8.390;2022-12-18T13:47:35;-1.90;99.90
4695;DHT22;2361;49.540;8.390;2022-12-18T13:50:26;-1.90;99.90
4695;DHT22;2361;49.540;8.390;2022-12-18T13:53:00;-1.90;99.90
4695;DHT22;2361;49.540;8.390;2022-12-18T13:55:27;-2.00;99.90
4695;DHT22;2361;49.540;8.390;2022-12-18T13:58:11;-2.00;99.90
4695;DHT22;2361;49.540;8.390;2022-12-18T14:00:42;-2.00;99.90
4695;DHT22;2361;49.540;8.390;2022-12-18T14:03:39;-2.10;99.90
4695;DHT22;2361;49.540;8.390;2022-12-18T14:06:07;-2.10;99.90
4695;DHT22;2361;49.540;8.390;2022-12-18T14:08:39;-2.10;99.90
4695;DHT22;2361;49.540;8.390;2022-12-18T14:11:07;-2.10;99.90
4695;DHT22;2361;49.540;8.390;2022-12-18T14:13:46;-2.10;99.90
4695;DHT22;2361;49.540;8.390;2022-12-18T14:16:15;-2.10;99.90
4695;DHT22;2361;49.540;8.390;2022-12-18T14:18:50;-2.00;99.90
4695;DHT22;2361;49.540;8.390;2022-12-18T14:21:27;-2.00;99.90
4695;DHT22;2361;49.540;8.390;2022-12-18T14:26:32;-2.10;99.90
4695;DHT22;2361;49.540;8.390;2022-12-18T14:29:17;-2.10;99.90
4695;DHT22;2361;49.540;8.390;2022-12-18T14:32:17;-2.20;99.90
4695;DHT22;2361;49.540;8.390;2022-12-18T14:34:50;-2.20;99.90
4695;DHT22;2361;49.540;8.390;2022-12-18T14:37:25;-2.20;99.90
4695;DHT22;2361;49.540;8.390;2022-12-18T14:39:57;-2.20;99.90
4695;DHT22;2361;49.540;8.390;2022-12-18T14:42:29;-2.10;99.90
4695;DHT22;2361;49.540;8.390;2022-12-18T14:51:18;-2.30;99.90
4695;DHT22;2361;49.540;8.390;2022-12-18T14:56:27;-2.40;99.90
4695;DHT22;2361;49.540;8.390;2022-12-18T15:01:38;-2.50;99.90
4695;DHT22;2361;49.540;8.390;2022-12-18T15:04:44;-2.50;99.90
4695;DHT22;2361;49.540;8.390;2022-12-18T15:09:39;-2.50;99.90
4695;DHT22;2361;49.540;8.390;2022-12-18T15:12:25;-2.60;99.90
4695;DHT22;2361;49.540;8.390;2022-12-18T15:14:55;-2.60;99.90
4695;DHT22;2361;49.540;8.390;2022-12-18T15:17:23;-2.60;99.90
4695;DHT22;2361;49.540;8.390;2022-12-18T15:19:53;-2.70;99.90
4695;DHT22;2361;49.540;8.390;2022-12-18T15:22:28;-2.60;99.90
4695;DHT22;2361;49.540;8.390;2022-12-18T15:24:57;-2.70;99.90
4695;DHT22;2361;49.540;8.390;2022-12-18T15:32:37;-2.70;99.90
4695;DHT22;2361;49.540;8.390;2022-12-18T15:37:36;-2.80;99.90
4695;DHT22;2361;49.540;8.390;2022-12-18T15:40:04;-2.90;99.90
4695;DHT22;2361;49.540;8.390;2022-12-18T15:42:31;-2.80;99.90
4695;DHT22;2361;49.540;8.390;2022-12-18T15:45:16;-2.80;99.90
4695;DHT22;2361;49.540;8.390;2022-12-18T15:47:43;-2.90;99.90
4695;DHT22;2361;49.540;8.390;2022-12-18T15:50:10;-2.90;99.90
4695;DHT22;2361;49.540;8.390;2022-12-18T15:52:49;-2.90;99.90
4695;DHT22;2361;49.540;8.390;2022-12-18T15:55:23;-2.90;99.90
4695;DHT22;2361;49.540;8.390;2022-12-18T15:58:10;-2.90;99.90
4695;DHT22;2361;49.540;8.390;2022-12-18T16:00:39;-2.90;99.90
4695;DHT22;2361;49.540;8.390;2022-12-18T16:03:06;-2.80;99.90
4695;DHT22;2361;49.540;8.390;2022-12-18T16:05:33;-2.80;99.90
4695;DHT22;2361;49.540;8.390;2022-12-18T16:08:00;-2.80;99.90
4695;DHT22;2361;49.540;8.390;2022-12-18T16:10:27;-2.70;99.90
4695;DHT22;2361;49.540;8.390;2022-12-18T16:12:54;-2.70;99.90
4695;DHT22;2361;49.540;8.390;2022-12-18T16:15:21;-2.70;99.90
4695;DHT22;2361;49.540;8.390;2022-12-18T16:17:50;-2.80;99.90
4695;DHT22;2361;49.540;8.390;2022-12-18T16:20:20;-2.70;99.90
4695;DHT22;2361;49.540;8.390;2022-12-18T16:22:48;-2.80;99.90
4695;DHT22;2361;49.540;8.390;2022-12-18T16:25:27;-2.70;99.90
4695;DHT22;2361;49.540;8.390;2022-12-18T16:27:55;-2.70;99.90
4695;DHT22;2361;49.540;8.390;2022-12-18T16:30:28;-2.70;99.90
4695;DHT22;2361;49.540;8.390;2022-12-18T16:33:04;-2.70;99.90
4695;DHT22;2361;49.540;8.390;2022-12-18T16:35:31;-2.70;99.90
4695;DHT22;2361;49.540;8.390;2022-12-18T16:37:58;-2.70;99.90
4695;DHT22;2361;49.540;8.390;2022-12-18T16:40:25;-2.60;99.90
4695;DHT22;2361;49.540;8.390;2022-12-18T16:42:52;-2.60;99.90
4695;DHT22;2361;49.540;8.390;2022-12-18T16:45:19;-2.60;99.90
4695;DHT22;2361;49.540;8.390;2022-12-18T16:47:46;-2.60;99.90
4695;DHT22;2361;49.540;8.390;2022-12-18T16:50:13;-2.60;99.90
4695;DHT22;2361;49.540;8.390;2022-12-18T16:52:40;-2.60;99.90
4695;DHT22;2361;49.540;8.390;2022-12-18T16:55:08;-2.60;99.90
4695;DHT22;2361;49.540;8.390;2022-12-18T16:57:35;-2.60;99.90
4695;DHT22;2361;49.540;8.390;2022-12-18T17:00:03;-2.60;99.90
4695;DHT22;2361;49.540;8.390;2022-12-18T17:02:31;-2.50;99.90
4695;DHT22;2361;49.540;8.390;2022-12-18T17:04:59;-2.50;99.90
4695;DHT22;2361;49.540;8.390;2022-12-18T17:07:26;-2.50;99.90
4695;DHT22;2361;49.540;8.390;2022-12-18T17:09:54;-2.50;99.90
4695;DHT22;2361;49.540;8.390;2022-12-18T17:12:21;-2.50;99.90
4695;DHT22;2361;49.540;8.390;2022-12-18T17:14:48;-2.50;99.90
4695;DHT22;2361;49.540;8.390;2022-12-18T17:17:16;-2.40;99.90
4695;DHT22;2361;49.540;8.390;2022-12-18T17:19:48;-2.40;99.90
4695;DHT22;2361;49.540;8.390;2022-12-18T17:22:15;-2.30;99.90
4695;DHT22;2361;49.540;8.390;2022-12-18T17:24:42;-2.40;99.90
4695;DHT22;2361;49.540;8.390;2022-12-18T17:27:09;-2.40;99.90
4695;DHT22;2361;49.540;8.390;2022-12-18T17:29:36;-2.40;99.90
4695;DHT22;2361;49.540;8.390;2022-12-18T17:32:09;-2.40;99.90
4695;DHT22;2361;49.540;8.390;2022-12-18T17:34:36;-2.40;99.90
4695;DHT22;2361;49.540;8.390;2022-12-18T17:37:03;-2.40;99.90
4695;DHT22;2361;49.540;8.390;2022-12-18T17:39:30;-2.40;99.90
4695;DHT22;2361;49.540;8.390;2022-12-18T17:41:57;-2.40;99.90
4695;DHT22;2361;49.540;8.390;2022-12-18T17:44:24;-2.40;99.90
4695;DHT22;2361;49.540;8.390;2022-12-18T17:46:52;-2.40;99.90
4695;DHT22;2361;49.540;8.390;2022-12-18T17:49:19;-2.40;99.90
4695;DHT22;2361;49.540;8.390;2022-12-18T17:51:46;-2.40;99.90
4695;DHT22;2361;49.540;8.390;2022-12-18T17:54:14;-2.40;99.90
4695;DHT22;2361;49.540;8.390;2022-12-18T17:56:41;-2.30;99.90
4695;DHT22;2361;49.540;8.390;2022-12-18T17:59:08;-2.30;99.90
4695;DHT22;2361;49.540;8.390;2022-12-18T18:01:35;-2.30;99.90
4695;DHT22;2361;49.540;8.390;2022-12-18T18:04:08;-2.30;99.90
4695;DHT22;2361;49.540;8.390;2022-12-18T18:06:35;-2.20;99.90
4695;DHT22;2361;49.540;8.390;2022-12-18T18:09:04;-2.20;99.90
4695;DHT22;2361;49.540;8.390;2022-12-18T18:11:31;-2.20;99.90
4695;DHT22;2361;49.540;8.390;2022-12-18T18:14:18;-2.20;99.90
4695;DHT22;2361;49.540;8.390;2022-12-18T18:16:49;-2.20;99.90
4695;DHT22;2361;49.540;8.390;2022-12-18T18:19:19;-2.20;99.90
4695;DHT22;2361;49.540;8.390;2022-12-18T18:21:49;-2.20;99.90